sensor_id;sensor_type;location;lat;lon;timestamp;temperature;humidity
7155;DHT22;3619;53.784;10.440;2023-01-10T00:01:59;6.30;99.90
7155;DHT22;3619;53.784;10.440;2023-01-10T00:04:31;6.40;99.90
7155;DHT22;3619;53.784;10.440;2023-01-10T00:07:02;6.40;99.90
7155;DHT22;3619;53.784;10.440;2023-01-10T00:09:33;6.30;99.90
7155;DHT22;3619;53.784;10.440;2023-01-10T00:12:06;6.30;99.90
7155;DHT22;3619;53.784;10.440;2023-01-10T00:14:53;6.30;99.90
7155;DHT22;3619;53.784;10.440;2023-01-10T00:17:28;6.30;99.90
7155;DHT22;3619;53.784;10.440;2023-01-10T00:20:00;6.30;99.90
7155;DHT22;3619;53.784;10.440;2023-01-10T00:22:35;6.30;99.90
7155;DHT22;3619;53.784;10.440;2023-01-10T00:25:14;6.30;99.90
7155;DHT22;3619;53.784;10.440;2023-01-10T00:27:54;6.30;99.90
7155;DHT22;3619;53.784;10.440;2023-01-10T00:30:36;6.30;99.90
7155;DHT22;3619;53.784;10.440;2023-01-10T00:33:15;6.30;99.90
7155;DHT22;3619;53.784;10.440;2023-01-10T00:35:48;6.30;99.90
7155;DHT22;3619;53.784;10.440;2023-01-10T00:38:18;6.30;99.90
7155;DHT22;3619;53.784;10.440;2023-01-10T00:40:50;6.30;99.90
7155;DHT22;3619;53.784;10.440;2023-01-10T00:43:22;6.40;99.90
7155;DHT22;3619;53.784;10.440;2023-01-10T00:46:11;6.40;99.90
7155;DHT22;3619;53.784;10.440;2023-01-10T00:48:47;6.40;99.90
7155;DHT22;3619;53.784;10.440;2023-01-10T00:51:22;6.40;99.90
7155;DHT22;3619;53.784;10.440;2023-01-10T00:53:57;6.40;99.90
7155;DHT22;3619;53.784;10.440;2023-01-10T00:56:33;6.40;99.90
7155;DHT22;3619;53.784;10.440;2023-01-10T00:59:08;6.40;99.90
7155;DHT22;3619;53.784;10.440;2023-01-10T01:01:37;6.40;99.90
7155;DHT22;3619;53.784;10.440;2023-01-10T01:04:09;6.40;99.90
7155;DHT22;3619;53.784;10.440;2023-01-10T01:06:42;6.40;99.90
7155;DHT22;3619;53.784;10.440;2023-01-10T01:09:22;6.40;99.90
7155;DHT22;3619;53.784;10.440;2023-01-10T01:11:59;6.40;99.90
7155;DHT22;3619;53.784;10.440;2023-01-10T01:14:33;6.40;99.90
7155;DHT22;3619;53.784;10.440;2023-01-10T01:17:07;6.40;99.90
7155;DHT22;3619;53.784;10.440;2023-01-10T01:19:55;6.50;99.90
7155;DHT22;3619;53.784;10.440;2023-01-10T01:22:34;6.40;99.90
7155;DHT22;3619;53.784;10.440;2023-01-10T01:25:07;6.50;99.90
7155;DHT22;3619;53.784;10.440;2023-01-10T01:27:36;6.40;99.90
7155;DHT22;3619;53.784;10.440;2023-01-10T01:30:12;6.40;99.90
7155;DHT22;3619;53.784;10.440;2023-01-10T01:32:45;6.40;99.90
7155;DHT22;3619;53.784;10.440;2023-01-10T01:35:17;6.40;99.90
7155;DHT22;3619;53.784;10.440;2023-01-10T01:37:51;6.40;99.90
7155;DHT22;3619;53.784;10.440;2023-01-10T01:40:32;6.40;99.90
7155;DHT22;3619;53.784;10.440;2023-01-10T01:43:08;6.40;99.90
7155;DHT22;3619;53.784;10.440;2023-01-10T01:45:48;6.40;99.90
7155;DHT22;3619;53.784;10.440;2023-01-10T01:48:28;6.40;99.90
7155;DHT22;3619;53.784;10.440;2023-01-10T01:51:08;6.40;99.90
7155;DHT22;3619;53.784;10.440;2023-01-10T01:53:46;6.40;99.90
7155;DHT22;3619;53.784;10.440;2023-01-10T01:56:25;6.40;99.90
7155;DHT22;3619;53.784;10.440;2023-01-10T01:58:58;6.40;99.90
7155;DHT22;3619;53.784;10.440;2023-01-10T02:01:38;6.40;99.90
7155;DHT22;3619;53.784;10.440;2023-01-10T02:04:17;6.40;99.90
7155;DHT22;3619;53.784;10.440;2023-01-10T02:06:53;6.40;99.90
7155;DHT22;3619;53.784;10.440;2023-01-10T02:09:30;6.30;99.90
7155;DHT22;3619;53.784;10.440;2023-01-10T02:12:03;6.30;99.90
7155;DHT22;3619;53.784;10.440;2023-01-10T02:14:37;6.30;99.90
7155;DHT22;3619;53.784;10.440;2023-01-10T02:17:17;6.30;99.90
7155;DHT22;3619;53.784;10.440;2023-01-10T02:19:52;6.30;99.90
7155;DHT22;3619;53.784;10.440;2023-01-10T02:29:08;6.30;99.90
7155;DHT22;3619;53.784;10.440;2023-01-10T02:32:12;6.30;99.90
7155;DHT22;3619;53.784;10.440;2023-01-10T02:34:56;6.30;99.90
7155;DHT22;3619;53.784;10.440;2023-01-10T02:37:39;6.30;99.90
7155;DHT22;3619;53.784;10.440;2023-01-10T02:40:21;6.20;99.90
7155;DHT22;3619;53.784;10.440;2023-01-10T02:43:01;6.20;99.90
7155;DHT22;3619;53.784;10.440;2023-01-10T02:45:39;6.20;99.90
7155;DHT22;3619;53.784;10.440;2023-01-10T02:48:21;6.10;99.90
7155;DHT22;3619;53.784;10.440;2023-01-10T02:51:01;6.20;99.90
7155;DHT22;3619;53.784;10.440;2023-01-10T02:53:35;6.20;99.90
7155;DHT22;3619;53.784;10.440;2023-01-10T02:56:37;6.10;99.90
7155;DHT22;3619;53.784;10.440;2023-01-10T03:02:28;6.10;99.90
7155;DHT22;3619;53.784;10.440;2023-01-10T03:05:17;6.10;99.90
7155;DHT22;3619;53.784;10.440;2023-01-10T03:07:59;6.10;99.90
7155;DHT22;3619;53.784;10.440;2023-01-10T03:10:36;6.00;99.90
7155;DHT22;3619;53.784;10.440;2023-01-10T03:13:17;6.00;99.90
7155;DHT22;3619;53.784;10.440;2023-01-10T03:15:59;6.00;99.90
7155;DHT22;3619;53.784;10.440;2023-01-10T03:18:42;6.00;99.90
7155;DHT22;3619;53.784;10.440;2023-01-10T03:21:26;6.00;99.90
7155;DHT22;3619;53.784;10.440;2023-01-10T03:24:07;6.00;99.90
7155;DHT22;3619;53.784;10.440;2023-01-10T03:26:44;6.00;99.90
7155;DHT22;3619;53.784;10.440;2023-01-10T03:29:25;5.90;99.90
7155;DHT22;3619;53.784;10.440;2023-01-10T03:32:01;5.90;99.90
7155;DHT22;3619;53.784;10.440;2023-01-10T03:34:32;5.90;99.90
7155;DHT22;3619;53.784;10.440;2023-01-10T03:37:07;5.80;99.90
7155;DHT22;3619;53.784;10.440;2023-01-10T03:39:46;5.80;99.90
7155;DHT22;3619;53.784;10.440;2023-01-10T03:42:31;5.80;99.90
7155;DHT22;3619;53.784;10.440;2023-01-10T03:45:28;5.80;99.90
7155;DHT22;3619;53.784;10.440;2023-01-10T03:48:04;5.80;99.90
7155;DHT22;3619;53.784;10.440;2023-01-10T03:50:43;5.80;99.90
7155;DHT22;3619;53.784;10.440;2023-01-10T03:53:25;5.80;99.90
7155;DHT22;3619;53.784;10.440;2023-01-10T03:55:56;5.80;99.90
7155;DHT22;3619;53.784;10.440;2023-01-10T03:58:28;5.80;99.90
7155;DHT22;3619;53.784;10.440;2023-01-10T04:01:04;5.80;99.90
7155;DHT22;3619;53.784;10.440;2023-01-10T04:03:34;5.80;99.90
7155;DHT22;3619;53.784;10.440;2023-01-10T04:06:10;5.70;99.90
7155;DHT22;3619;53.784;10.440;2023-01-10T04:08:44;5.70;99.90
7155;DHT22;3619;53.784;10.440;2023-01-10T04:11:14;5.60;99.90
7155;DHT22;3619;53.784;10.440;2023-01-10T04:13:52;5.60;99.90
7155;DHT22;3619;53.784;10.440;2023-01-10T04:16:24;5.50;99.90
7155;DHT22;3619;53.784;10.440;2023-01-10T04:20:21;5.50;99.90
7155;DHT22;3619;53.784;10.440;2023-01-10T04:21:52;5.50;99.90
7155;DHT22;3619;53.784;10.440;2023-01-10T04:24:22;5.40;99.90
7155;DHT22;3619;53.784;10.440;2023-01-10T04:26:59;5.40;99.90
7155;DHT22;3619;53.784;10.440;2023-01-10T04:29:32;5.40;99.90
7155;DHT22;3619;53.784;10.440;2023-01-10T04:32:08;5.40;99.90
7155;DHT22;3619;53.784;10.440;2023-01-10T04:34:46;5.40;99.90
7155;DHT22;3619;53.784;10.440;2023-01-10T04:37:16;5.30;99.90
7155;DHT22;3619;53.784;10.440;2023-01-10T04:39:48;5.30;99.90
7155;DHT22;3619;53.784;10.440;2023-01-10T04:42:18;5.30;99.90
7155;DHT22;3619;53.784;10.440;2023-01-10T04:44:51;5.30;99.90
7155;DHT22;3619;53.784;10.440;2023-01-10T04:47:26;5.30;99.90
7155;DHT22;3619;53.784;10.440;2023-01-10T04:50:00;5.30;99.90
7155;DHT22;3619;53.784;10.440;2023-01-10T04:52:34;5.30;99.90
7155;DHT22;3619;53.784;10.440;2023-01-10T04:55:15;5.20;99.90
7155;DHT22;3619;53.784;10.440;2023-01-10T04:57:48;5.20;99.90
7155;DHT22;3619;53.784;10.440;2023-01-10T05:00:18;5.20;99.90
7155;DHT22;3619;53.784;10.440;2023-01-10T05:02:50;5.10;99.90
7155;DHT22;3619;53.784;10.440;2023-01-10T05:05:23;5.10;99.90
7155;DHT22;3619;53.784;10.440;2023-01-10T05:08:00;5.10;99.90
7155;DHT22;3619;53.784;10.440;2023-01-10T05:10:37;5.10;99.90
7155;DHT22;3619;53.784;10.440;2023-01-10T05:13:17;5.20;99.90
7155;DHT22;3619;53.784;10.440;2023-01-10T05:15:57;5.10;99.90
7155;DHT22;3619;53.784;10.440;2023-01-10T05:18:29;5.20;99.90
7155;DHT22;3619;53.784;10.440;2023-01-10T05:21:08;5.20;99.90
7155;DHT22;3619;53.784;10.440;2023-01-10T05:23:40;5.30;99.90
7155;DHT22;3619;53.784;10.440;2023-01-10T05:26:17;5.30;99.90
7155;DHT22;3619;53.784;10.440;2023-01-10T05:28:48;5.40;99.90
7155;DHT22;3619;53.784;10.440;2023-01-10T05:31:28;5.30;99.90
7155;DHT22;3619;53.784;10.440;2023-01-10T05:33:58;5.40;99.90
7155;DHT22;3619;53.784;10.440;2023-01-10T05:36:29;5.40;99.90
7155;DHT22;3619;53.784;10.440;2023-01-10T05:38:58;5.40;99.90
7155;DHT22;3619;53.784;10.440;2023-01-10T05:41:37;5.40;99.90
7155;DHT22;3619;53.784;10.440;2023-01-10T05:44:09;5.50;99.90
7155;DHT22;3619;53.784;10.440;2023-01-10T05:46:44;5.50;99.90
7155;DHT22;3619;53.784;10.440;2023-01-10T05:49:16;5.50;99.90
7155;DHT22;3619;53.784;10.440;2023-01-10T05:51:49;5.50;99.90
7155;DHT22;3619;53.784;10.440;2023-01-10T05:54:19;5.50;99.90
7155;DHT22;3619;53.784;10.440;2023-01-10T05:56:50;5.50;99.90
7155;DHT22;3619;53.784;10.440;2023-01-10T05:59:29;5.50;99.90
7155;DHT22;3619;53.784;10.440;2023-01-10T06:02:02;5.40;99.90
7155;DHT22;3619;53.784;10.440;2023-01-10T06:04:40;5.40;99.90
7155;DHT22;3619;53.784;10.440;2023-01-10T06:07:16;5.40;99.90
7155;DHT22;3619;53.784;10.440;2023-01-10T06:09:56;5.40;99.90
7155;DHT22;3619;53.784;10.440;2023-01-10T06:12:30;5.40;99.90
7155;DHT22;3619;53.784;10.440;2023-01-10T06:15:03;5.40;99.90
7155;DHT22;3619;53.784;10.440;2023-01-10T06:17:37;5.30;99.90
7155;DHT22;3619;53.784;10.440;2023-01-10T06:20:10;5.30;99.90
7155;DHT22;3619;53.784;10.440;2023-01-10T06:22:46;5.30;99.90
7155;DHT22;3619;53.784;10.440;2023-01-10T06:25:19;5.20;99.90
7155;DHT22;3619;53.784;10.440;2023-01-10T06:28:04;5.20;99.90
7155;DHT22;3619;53.784;10.440;2023-01-10T06:30:45;5.20;99.90
7155;DHT22;3619;53.784;10.440;2023-01-10T06:33:20;5.20;99.90
7155;DHT22;3619;53.784;10.440;2023-01-10T06:35:47;5.10;99.90
7155;DHT22;3619;53.784;10.440;2023-01-10T06:38:14;5.10;99.90
7155;DHT22;3619;53.784;10.440;2023-01-10T06:40:41;5.00;99.90
7155;DHT22;3619;53.784;10.440;2023-01-10T06:43:11;5.10;99.90
7155;DHT22;3619;53.784;10.440;2023-01-10T06:45:37;5.00;99.90
7155;DHT22;3619;53.784;10.440;2023-01-10T06:48:05;5.10;99.90
7155;DHT22;3619;53.784;10.440;2023-01-10T06:50:34;5.00;99.90
7155;DHT22;3619;53.784;10.440;2023-01-10T06:53:02;5.00;99.90
7155;DHT22;3619;53.784;10.440;2023-01-10T06:55:30;5.00;99.90
7155;DHT22;3619;53.784;10.440;2023-01-10T06:57:58;5.00;99.90
7155;DHT22;3619;53.784;10.440;2023-01-10T07:00:28;5.00;99.90
7155;DHT22;3619;53.784;10.440;2023-01-10T07:02:59;5.00;99.90
7155;DHT22;3619;53.784;10.440;2023-01-10T07:05:27;4.90;99.90
7155;DHT22;3619;53.784;10.440;2023-01-10T07:07:56;4.90;99.90
7155;DHT22;3619;53.784;10.440;2023-01-10T07:10:26;4.90;99.90
7155;DHT22;3619;53.784;10.440;2023-01-10T07:12:53;4.80;99.90
7155;DHT22;3619;53.784;10.440;2023-01-10T07:15:20;4.80;99.90
7155;DHT22;3619;53.784;10.440;2023-01-10T07:17:56;4.80;99.90
7155;DHT22;3619;53.784;10.440;2023-01-10T07:20:25;4.80;99.90
7155;DHT22;3619;53.784;10.440;2023-01-10T07:22:54;4.80;99.90
7155;DHT22;3619;53.784;10.440;2023-01-10T07:25:21;4.80;99.90
7155;DHT22;3619;53.784;10.440;2023-01-10T07:27:48;4.70;99.90
7155;DHT22;3619;53.784;10.440;2023-01-10T07:30:15;4.80;99.90
7155;DHT22;3619;53.784;10.440;2023-01-10T07:32:42;4.70;99.90
7155;DHT22;3619;53.784;10.440;2023-01-10T07:35:10;4.70;99.90
7155;DHT22;3619;53.784;10.440;2023-01-10T07:37:37;4.70;99.90
7155;DHT22;3619;53.784;10.440;2023-01-10T07:40:05;4.60;99.90
7155;DHT22;3619;53.784;10.440;2023-01-10T07:42:32;4.70;99.90
7155;DHT22;3619;53.784;10.440;2023-01-10T07:44:58;4.70;99.90
7155;DHT22;3619;53.784;10.440;2023-01-10T07:47:27;4.60;99.90
7155;DHT22;3619;53.784;10.440;2023-01-10T07:49:54;4.60;99.90
7155;DHT22;3619;53.784;10.440;2023-01-10T07:52:22;4.60;99.90
7155;DHT22;3619;53.784;10.440;2023-01-10T07:54:49;4.60;99.90
7155;DHT22;3619;53.784;10.440;2023-01-10T07:57:15;4.60;99.90
7155;DHT22;3619;53.784;10.440;2023-01-10T07:59:42;4.60;99.90
7155;DHT22;3619;53.784;10.440;2023-01-10T08:02:12;4.60;99.90
7155;DHT22;3619;53.784;10.440;2023-01-10T08:04:39;4.60;99.90
7155;DHT22;3619;53.784;10.440;2023-01-10T08:07:05;4.60;99.90
7155;DHT22;3619;53.784;10.440;2023-01-10T08:09:33;4.60;99.90
7155;DHT22;3619;53.784;10.440;2023-01-10T08:12:00;4.60;99.90
7155;DHT22;3619;53.784;10.440;2023-01-10T08:14:29;4.60;99.90
7155;DHT22;3619;53.784;10.440;2023-01-10T08:16:56;4.60;99.90
7155;DHT22;3619;53.784;10.440;2023-01-10T08:19:23;4.60;99.90
7155;DHT22;3619;53.784;10.440;2023-01-10T08:21:50;4.60;99.90
7155;DHT22;3619;53.784;10.440;2023-01-10T08:24:16;4.60;99.90
7155;DHT22;3619;53.784;10.440;2023-01-10T08:26:44;4.70;99.90
7155;DHT22;3619;53.784;10.440;2023-01-10T08:29:11;4.70;99.90
7155;DHT22;3619;53.784;10.440;2023-01-10T08:31:39;4.70;99.90
7155;DHT22;3619;53.784;10.440;2023-01-10T08:34:08;4.70;99.90
7155;DHT22;3619;53.784;10.440;2023-01-10T08:36:35;4.70;99.90
7155;DHT22;3619;53.784;10.440;2023-01-10T08:39:01;4.80;99.90
7155;DHT22;3619;53.784;10.440;2023-01-10T08:41:28;4.70;99.90
7155;DHT22;3619;53.784;10.440;2023-01-10T08:43:57;4.80;99.90
7155;DHT22;3619;53.784;10.440;2023-01-10T08:46:24;4.80;99.90
7155;DHT22;3619;53.784;10.440;2023-01-10T08:48:51;4.80;99.90
7155;DHT22;3619;53.784;10.440;2023-01-10T08:51:18;4.90;99.90
7155;DHT22;3619;53.784;10.440;2023-01-10T08:53:46;4.90;99.90
7155;DHT22;3619;53.784;10.440;2023-01-10T08:56:16;5.00;99.90
7155;DHT22;3619;53.784;10.440;2023-01-10T08:58:52;4.90;99.90
7155;DHT22;3619;53.784;10.440;2023-01-10T09:01:28;5.10;99.90
7155;DHT22;3619;53.784;10.440;2023-01-10T09:03:55;5.20;99.90
7155;DHT22;3619;53.784;10.440;2023-01-10T09:06:23;5.20;99.90
7155;DHT22;3619;53.784;10.440;2023-01-10T09:08:50;5.30;99.90
7155;DHT22;3619;53.784;10.440;2023-01-10T09:11:17;5.30;99.90
7155;DHT22;3619;53.784;10.440;2023-01-10T09:13:48;5.30;99.90
7155;DHT22;3619;53.784;10.440;2023-01-10T09:16:21;5.30;99.90
7155;DHT22;3619;53.784;10.440;2023-01-10T09:18:51;5.30;99.90
7155;DHT22;3619;53.784;10.440;2023-01-10T09:21:26;5.40;99.90
7155;DHT22;3619;53.784;10.440;2023-01-10T09:23:54;5.40;99.90
7155;DHT22;3619;53.784;10.440;2023-01-10T09:26:28;5.50;99.90
7155;DHT22;3619;53.784;10.440;2023-01-10T09:28:55;5.50;99.90
7155;DHT22;3619;53.784;10.440;2023-01-10T09:31:28;5.40;99.90
7155;DHT22;3619;53.784;10.440;2023-01-10T09:33:59;5.30;99.90
7155;DHT22;3619;53.784;10.440;2023-01-10T09:36:29;5.50;99.90
7155;DHT22;3619;53.784;10.440;2023-01-10T09:38:56;5.60;99.90
7155;DHT22;3619;53.784;10.440;2023-01-10T09:41:46;5.70;99.90
7155;DHT22;3619;53.784;10.440;2023-01-10T09:44:18;5.80;99.90
7155;DHT22;3619;53.784;10.440;2023-01-10T09:46:53;5.90;99.90
7155;DHT22;3619;53.784;10.440;2023-01-10T09:49:36;5.90;99.90
7155;DHT22;3619;53.784;10.440;2023-01-10T09:52:17;6.10;99.90
7155;DHT22;3619;53.784;10.440;2023-01-10T09:54:47;6.20;99.90
7155;DHT22;3619;53.784;10.440;2023-01-10T09:57:18;6.20;99.90
7155;DHT22;3619;53.784;10.440;2023-01-10T09:59:46;6.20;99.90
7155;DHT22;3619;53.784;10.440;2023-01-10T10:02:24;6.20;99.90
7155;DHT22;3619;53.784;10.440;2023-01-10T10:05:03;6.30;99.90
7155;DHT22;3619;53.784;10.440;2023-01-10T10:07:42;6.30;99.90
7155;DHT22;3619;53.784;10.440;2023-01-10T10:10:17;6.40;99.90
7155;DHT22;3619;53.784;10.440;2023-01-10T10:12:52;6.30;99.90
7155;DHT22;3619;53.784;10.440;2023-01-10T10:15:34;6.30;99.90
7155;DHT22;3619;53.784;10.440;2023-01-10T10:18:16;6.20;99.90
7155;DHT22;3619;53.784;10.440;2023-01-10T10:20:57;6.30;99.90
7155;DHT22;3619;53.784;10.440;2023-01-10T10:23:43;6.30;99.90
7155;DHT22;3619;53.784;10.440;2023-01-10T10:26:17;6.40;99.90
7155;DHT22;3619;53.784;10.440;2023-01-10T10:29:12;6.40;99.90
7155;DHT22;3619;53.784;10.440;2023-01-10T10:31:59;6.30;99.90
7155;DHT22;3619;53.784;10.440;2023-01-10T10:34:39;6.40;99.90
7155;DHT22;3619;53.784;10.440;2023-01-10T10:37:12;6.30;99.90
7155;DHT22;3619;53.784;10.440;2023-01-10T10:39:46;6.30;99.90
7155;DHT22;3619;53.784;10.440;2023-01-10T10:42:25;6.30;99.90
7155;DHT22;3619;53.784;10.440;2023-01-10T10:44:58;6.40;99.90
7155;DHT22;3619;53.784;10.440;2023-01-10T10:47:32;6.40;99.90
7155;DHT22;3619;53.784;10.440;2023-01-10T10:50:07;6.50;99.90
7155;DHT22;3619;53.784;10.440;2023-01-10T10:52:44;6.50;99.90
7155;DHT22;3619;53.784;10.440;2023-01-10T10:55:20;6.50;99.90
7155;DHT22;3619;53.784;10.440;2023-01-10T10:57:48;6.60;99.90
7155;DHT22;3619;53.784;10.440;2023-01-10T11:00:17;6.70;99.90
7155;DHT22;3619;53.784;10.440;2023-01-10T11:02:50;6.70;99.90
7155;DHT22;3619;53.784;10.440;2023-01-10T11:05:28;6.70;99.90
7155;DHT22;3619;53.784;10.440;2023-01-10T11:08:02;6.60;99.90
7155;DHT22;3619;53.784;10.440;2023-01-10T11:10:47;6.60;99.90
7155;DHT22;3619;53.784;10.440;2023-01-10T11:13:24;6.50;99.90
7155;DHT22;3619;53.784;10.440;2023-01-10T11:15:53;6.60;99.90
7155;DHT22;3619;53.784;10.440;2023-01-10T11:18:22;6.50;99.90
7155;DHT22;3619;53.784;10.440;2023-01-10T11:20:54;6.50;99.90
7155;DHT22;3619;53.784;10.440;2023-01-10T11:23:30;6.40;99.90
7155;DHT22;3619;53.784;10.440;2023-01-10T11:26:02;6.50;99.90
7155;DHT22;3619;53.784;10.440;2023-01-10T11:28:30;6.40;99.90
7155;DHT22;3619;53.784;10.440;2023-01-10T11:31:00;6.50;99.90
7155;DHT22;3619;53.784;10.440;2023-01-10T11:33:30;6.50;99.90
7155;DHT22;3619;53.784;10.440;2023-01-10T11:35:59;6.40;99.90
7155;DHT22;3619;53.784;10.440;2023-01-10T11:38:31;6.50;99.90
7155;DHT22;3619;53.784;10.440;2023-01-10T11:41:00;6.50;99.90
7155;DHT22;3619;53.784;10.440;2023-01-10T11:43:31;6.50;99.90
7155;DHT22;3619;53.784;10.440;2023-01-10T11:46:11;6.50;99.90
7155;DHT22;3619;53.784;10.440;2023-01-10T11:48:43;6.50;99.90
7155;DHT22;3619;53.784;10.440;2023-01-10T11:51:18;6.50;99.90
7155;DHT22;3619;53.784;10.440;2023-01-10T11:53:50;6.50;99.90
7155;DHT22;3619;53.784;10.440;2023-01-10T11:56:24;6.60;99.90
7155;DHT22;3619;53.784;10.440;2023-01-10T11:58:52;6.50;99.90
7155;DHT22;3619;53.784;10.440;2023-01-10T12:01:32;6.60;99.90
7155;DHT22;3619;53.784;10.440;2023-01-10T12:04:00;6.50;99.90
7155;DHT22;3619;53.784;10.440;2023-01-10T12:06:36;6.50;99.90
7155;DHT22;3619;53.784;10.440;2023-01-10T12:09:34;6.60;99.90
7155;DHT22;3619;53.784;10.440;2023-01-10T12:12:03;6.60;99.90
7155;DHT22;3619;53.784;10.440;2023-01-10T12:14:32;6.60;99.90
7155;DHT22;3619;53.784;10.440;2023-01-10T12:17:13;6.70;99.90
7155;DHT22;3619;53.784;10.440;2023-01-10T12:19:45;6.60;99.90
7155;DHT22;3619;53.784;10.440;2023-01-10T12:22:15;6.70;99.90
7155;DHT22;3619;53.784;10.440;2023-01-10T12:24:46;6.70;99.90
7155;DHT22;3619;53.784;10.440;2023-01-10T12:27:16;6.60;99.90
7155;DHT22;3619;53.784;10.440;2023-01-10T12:29:52;6.60;99.90
7155;DHT22;3619;53.784;10.440;2023-01-10T12:32:24;6.70;99.90
7155;DHT22;3619;53.784;10.440;2023-01-10T12:34:56;6.70;99.90
7155;DHT22;3619;53.784;10.440;2023-01-10T12:37:33;6.70;99.90
7155;DHT22;3619;53.784;10.440;2023-01-10T12:40:13;6.70;99.90
7155;DHT22;3619;53.784;10.440;2023-01-10T12:42:48;6.80;99.90
7155;DHT22;3619;53.784;10.440;2023-01-10T12:45:42;6.70;99.90
7155;DHT22;3619;53.784;10.440;2023-01-10T12:48:16;6.70;99.90
7155;DHT22;3619;53.784;10.440;2023-01-10T12:50:47;6.80;99.90
7155;DHT22;3619;53.784;10.440;2023-01-10T12:53:28;6.80;99.90
7155;DHT22;3619;53.784;10.440;2023-01-10T12:56:01;6.80;99.90
7155;DHT22;3619;53.784;10.440;2023-01-10T12:58:39;6.80;99.90
7155;DHT22;3619;53.784;10.440;2023-01-10T13:01:13;6.90;99.90
7155;DHT22;3619;53.784;10.440;2023-01-10T13:03:50;6.90;99.90
7155;DHT22;3619;53.784;10.440;2023-01-10T13:06:21;6.90;99.90
7155;DHT22;3619;53.784;10.440;2023-01-10T13:08:51;6.90;99.90
7155;DHT22;3619;53.784;10.440;2023-01-10T13:11:28;6.90;99.90
7155;DHT22;3619;53.784;10.440;2023-01-10T13:14:01;6.90;99.90
7155;DHT22;3619;53.784;10.440;2023-01-10T13:16:46;6.80;99.90
7155;DHT22;3619;53.784;10.440;2023-01-10T13:19:24;6.90;99.90
7155;DHT22;3619;53.784;10.440;2023-01-10T13:22:16;6.90;99.90
7155;DHT22;3619;53.784;10.440;2023-01-10T13:24:54;6.90;99.90
7155;DHT22;3619;53.784;10.440;2023-01-10T13:27:28;7.00;99.90
7155;DHT22;3619;53.784;10.440;2023-01-10T13:29:55;7.00;99.90
7155;DHT22;3619;53.784;10.440;2023-01-10T13:32:26;7.00;99.90
7155;DHT22;3619;53.784;10.440;2023-01-10T13:35:10;7.00;99.90
7155;DHT22;3619;53.784;10.440;2023-01-10T13:37:38;7.00;99.90
7155;DHT22;3619;53.784;10.440;2023-01-10T13:40:16;7.00;99.90
7155;DHT22;3619;53.784;10.440;2023-01-10T13:52:30;7.00;99.90
7155;DHT22;3619;53.784;10.440;2023-01-10T13:54:59;7.00;99.90
7155;DHT22;3619;53.784;10.440;2023-01-10T13:57:52;6.90;99.90
7155;DHT22;3619;53.784;10.440;2023-01-10T14:00:41;6.90;99.90
7155;DHT22;3619;53.784;10.440;2023-01-10T14:03:39;7.00;99.90
7155;DHT22;3619;53.784;10.440;2023-01-10T14:06:15;7.00;99.90
7155;DHT22;3619;53.784;10.440;2023-01-10T14:08:51;7.00;99.90
7155;DHT22;3619;53.784;10.440;2023-01-10T14:11:21;7.00;99.90
7155;DHT22;3619;53.784;10.440;2023-01-10T14:13:53;7.00;99.90
7155;DHT22;3619;53.784;10.440;2023-01-10T14:16:34;7.00;99.90
7155;DHT22;3619;53.784;10.440;2023-01-10T14:19:04;7.00;99.90
7155;DHT22;3619;53.784;10.440;2023-01-10T14:21:38;7.00;99.90
7155;DHT22;3619;53.784;10.440;2023-01-10T14:24:21;7.00;99.90
7155;DHT22;3619;53.784;10.440;2023-01-10T14:26:51;7.10;99.90
7155;DHT22;3619;53.784;10.440;2023-01-10T14:29:21;7.00;99.90
7155;DHT22;3619;53.784;10.440;2023-01-10T14:31:49;6.90;99.90
7155;DHT22;3619;53.784;10.440;2023-01-10T14:34:20;6.90;99.90
7155;DHT22;3619;53.784;10.440;2023-01-10T14:36:58;6.90;99.90
7155;DHT22;3619;53.784;10.440;2023-01-10T14:39:28;6.90;99.90
7155;DHT22;3619;53.784;10.440;2023-01-10T14:41:59;6.90;99.90
7155;DHT22;3619;53.784;10.440;2023-01-10T14:44:34;6.90;99.90
7155;DHT22;3619;53.784;10.440;2023-01-10T14:47:03;6.80;99.90
7155;DHT22;3619;53.784;10.440;2023-01-10T14:49:34;6.80;99.90
7155;DHT22;3619;53.784;10.440;2023-01-10T14:52:11;6.70;99.90
7155;DHT22;3619;53.784;10.440;2023-01-10T14:54:38;6.70;99.90
7155;DHT22;3619;53.784;10.440;2023-01-10T14:57:16;6.70;99.90
7155;DHT22;3619;53.784;10.440;2023-01-10T14:59:48;6.70;99.90
7155;DHT22;3619;53.784;10.440;2023-01-10T15:02:20;6.60;99.90
7155;DHT22;3619;53.784;10.440;2023-01-10T15:04:58;6.60;99.90
7155;DHT22;3619;53.784;10.440;2023-01-10T15:07:32;6.60;99.90
7155;DHT22;3619;53.784;10.440;2023-01-10T15:10:01;6.50;99.90
7155;DHT22;3619;53.784;10.440;2023-01-10T15:12:31;6.40;99.90
7155;DHT22;3619;53.784;10.440;2023-01-10T15:15:05;6.40;99.90
7155;DHT22;3619;53.784;10.440;2023-01-10T15:17:35;6.30;99.90
7155;DHT22;3619;53.784;10.440;2023-01-10T15:20:08;6.20;99.90
7155;DHT22;3619;53.784;10.440;2023-01-10T15:22:36;6.10;99.90
7155;DHT22;3619;53.784;10.440;2023-01-10T15:25:24;6.20;99.90
7155;DHT22;3619;53.784;10.440;2023-01-10T15:27:54;6.20;99.90
7155;DHT22;3619;53.784;10.440;2023-01-10T15:30:26;6.20;99.90
7155;DHT22;3619;53.784;10.440;2023-01-10T15:32:55;6.20;99.90
7155;DHT22;3619;53.784;10.440;2023-01-10T15:35:25;6.10;99.90
7155;DHT22;3619;53.784;10.440;2023-01-10T15:37:55;6.10;99.90
7155;DHT22;3619;53.784;10.440;2023-01-10T15:40:24;6.10;99.90
7155;DHT22;3619;53.784;10.440;2023-01-10T15:43:20;6.10;99.90
7155;DHT22;3619;53.784;10.440;2023-01-10T15:45:50;6.20;99.90
7155;DHT22;3619;53.784;10.440;2023-01-10T15:48:28;6.20;99.90
7155;DHT22;3619;53.784;10.440;2023-01-10T15:50:57;6.20;99.90
7155;DHT22;3619;53.784;10.440;2023-01-10T15:53:54;6.20;99.90
7155;DHT22;3619;53.784;10.440;2023-01-10T15:56:27;6.20;99.90
7155;DHT22;3619;53.784;10.440;2023-01-10T15:58:54;6.40;99.90
7155;DHT22;3619;53.784;10.440;2023-01-10T16:01:23;6.30;99.90
7155;DHT22;3619;53.784;10.440;2023-01-10T16:03:55;6.30;99.90
7155;DHT22;3619;53.784;10.440;2023-01-10T16:06:24;6.30;99.90
7155;DHT22;3619;53.784;10.440;2023-01-10T16:08:56;6.30;99.90
7155;DHT22;3619;53.784;10.440;2023-01-10T16:11:28;6.20;99.90
7155;DHT22;3619;53.784;10.440;2023-01-10T16:14:18;6.30;99.90
7155;DHT22;3619;53.784;10.440;2023-01-10T16:16:47;6.30;99.90
7155;DHT22;3619;53.784;10.440;2023-01-10T16:19:14;6.30;99.90
7155;DHT22;3619;53.784;10.440;2023-01-10T16:21:46;6.30;99.90
7155;DHT22;3619;53.784;10.440;2023-01-10T16:24:20;6.30;99.90
7155;DHT22;3619;53.784;10.440;2023-01-10T16:26:50;6.30;99.90
7155;DHT22;3619;53.784;10.440;2023-01-10T16:29:17;6.20;99.90
7155;DHT22;3619;53.784;10.440;2023-01-10T16:31:47;6.20;99.90
7155;DHT22;3619;53.784;10.440;2023-01-10T16:34:14;6.10;99.90
7155;DHT22;3619;53.784;10.440;2023-01-10T16:36:41;6.10;99.90
7155;DHT22;3619;53.784;10.440;2023-01-10T16:39:13;6.00;99.90
7155;DHT22;3619;53.784;10.440;2023-01-10T16:41:41;6.00;99.90
7155;DHT22;3619;53.784;10.440;2023-01-10T16:44:25;6.00;99.90
7155;DHT22;3619;53.784;10.440;2023-01-10T16:46:54;6.00;99.90
7155;DHT22;3619;53.784;10.440;2023-01-10T16:49:21;6.00;99.90
7155;DHT22;3619;53.784;10.440;2023-01-10T16:51:48;6.00;99.90
7155;DHT22;3619;53.784;10.440;2023-01-10T16:54:18;6.00;99.90
7155;DHT22;3619;53.784;10.440;2023-01-10T16:56:46;6.00;99.90
7155;DHT22;3619;53.784;10.440;2023-01-10T16:59:14;6.00;99.90
7155;DHT22;3619;53.784;10.440;2023-01-10T17:01:48;6.00;99.90
7155;DHT22;3619;53.784;10.440;2023-01-10T17:04:21;6.00;99.90
7155;DHT22;3619;53.784;10.440;2023-01-10T17:06:48;6.00;99.90